Time;durP1;ratioP1;P1;durP2;ratioP2;P2;SDS_P1;SDS_P2;PMS_P1;PMS_P2;Temp;Humidity;BMP_temperature;BMP_pressure;BME280_temperature;BME280_humidity;BME280_pressure;Samples;Min_cycle;Max_cycle;Signal;HPM_P1;HPM_P2
2022/08/20 00:00:59;;;;;;;7.80;4.35;;;19.50;99.90;;;;;;5046121;28;20028;-84
2022/08/20 00:03:28;;;;;;;10.75;4.30;;;19.50;99.90;;;;;;5046787;28;20072;-84
2022/08/20 00:06:06;;;;;;;7.03;4.13;;;19.50;99.90;;;;;;5040267;28;20059;-84
2022/08/20 00:08:31;;;;;;;7.82;4.45;;;19.50;99.90;;;;;;5044693;28;20040;-84
2022/08/20 00:10:58;;;;;;;8.23;4.63;;;19.60;99.90;;;;;;5050207;28;20563;-84
2022/08/20 00:13:33;;;;;;;9.82;4.95;;;19.50;99.90;;;;;;5050636;28;20442;-84
2022/08/20 00:15:58;;;;;;;10.70;5.13;;;19.50;99.90;;;;;;5045523;28;20072;-83
2022/08/20 00:18:25;;;;;;;8.73;4.85;;;19.50;99.90;;;;;;5039172;28;20534;-85
2022/08/20 00:20:53;;;;;;;6.93;4.20;;;19.50;99.90;;;;;;5030059;28;20037;-84
2022/08/20 00:23:19;;;;;;;11.73;5.95;;;19.50;99.90;;;;;;5047390;28;20036;-83
2022/08/20 00:25:46;;;;;;;12.05;5.63;;;19.50;99.90;;;;;;5044041;28;20491;-85
2022/08/20 00:28:12;;;;;;;9.57;4.95;;;19.40;99.90;;;;;;5027791;28;20048;-84
2022/08/20 00:30:39;;;;;;;9.30;5.32;;;19.40;99.90;;;;;;5046298;28;20037;-83
2022/08/20 00:33:08;;;;;;;10.35;4.85;;;19.40;99.90;;;;;;5045433;28;20048;-84
2022/08/20 00:35:38;;;;;;;9.48;4.65;;;19.30;99.90;;;;;;5059560;28;20037;-85
2022/08/20 00:38:04;;;;;;;12.20;5.40;;;19.30;99.90;;;;;;5025449;28;20033;-84
2022/08/20 00:40:43;;;;;;;10.35;4.97;;;19.20;99.90;;;;;;5044851;28;20044;-84
2022/08/20 00:43:34;;;;;;;12.90;5.00;;;19.10;99.90;;;;;;5043304;28;20071;-85
2022/08/20 00:46:10;;;;;;;12.30;5.00;;;19.10;99.90;;;;;;5047517;28;20112;-84
2022/08/20 00:48:39;;;;;;;11.60;4.57;;;19.00;99.90;;;;;;5045460;28;20044;-83
2022/08/20 00:51:13;;;;;;;10.65;4.80;;;19.10;99.90;;;;;;5040181;28;20041;-83
2022/08/20 00:53:41;;;;;;;13.23;4.80;;;19.10;99.90;;;;;;5042647;28;20580;-85
2022/08/20 00:56:08;;;;;;;10.27;4.40;;;19.10;99.90;;;;;;5042899;28;20075;-83
2022/08/20 00:58:36;;;;;;;11.10;4.57;;;19.00;99.90;;;;;;5061034;28;20060;-85
2022/08/20 01:01:03;;;;;;;9.20;4.60;;;19.00;99.90;;;;;;5025994;28;20037;-85
2022/08/20 01:03:29;;;;;;;7.32;4.30;;;19.00;99.90;;;;;;5044659;28;20033;-84
2022/08/20 01:05:55;;;;;;;7.15;3.90;;;19.00;99.90;;;;;;5044871;28;20111;-83
2022/08/20 01:08:22;;;;;;;10.70;4.55;;;19.00;99.90;;;;;;5043241;28;20041;-84
2022/08/20 01:10:49;;;;;;;12.75;4.63;;;19.00;99.90;;;;;;5040390;28;20048;-83
2022/08/20 01:13:19;;;;;;;13.45;4.93;;;19.00;99.90;;;;;;5041786;28;20467;-84
2022/08/20 01:15:48;;;;;;;9.73;4.63;;;18.90;99.90;;;;;;5043045;28;20091;-84
2022/08/20 01:18:18;;;;;;;9.98;4.32;;;18.90;99.90;;;;;;5029008;28;21383;-86
2022/08/20 01:20:50;;;;;;;9.75;4.65;;;18.90;99.90;;;;;;5048312;28;20033;-84
2022/08/20 01:23:39;;;;;;;10.25;4.10;;;18.80;99.90;;;;;;5045510;28;20094;-83
2022/08/20 01:26:16;;;;;;;13.20;4.63;;;18.80;99.90;;;;;;5047341;28;20035;-83
2022/08/20 01:29:00;;;;;;;9.50;4.50;;;18.80;99.90;;;;;;5048674;28;20130;-85
2022/08/20 01:31:29;;;;;;;11.32;4.82;;;18.70;99.90;;;;;;5042473;28;20055;-84
2022/08/20 01:33:56;;;;;;;14.27;4.90;;;18.60;99.90;;;;;;5050313;28;20410;-83
2022/08/20 01:36:44;;;;;;;9.98;4.40;;;18.60;99.90;;;;;;5025868;28;20520;-83
2022/08/20 01:39:14;;;;;;;7.40;4.20;;;18.60;99.90;;;;;;5026982;28;20045;-83
2022/08/20 01:41:52;;;;;;;11.43;4.35;;;18.60;99.90;;;;;;5047806;28;20052;-84
2022/08/20 01:44:20;;;;;;;10.60;4.80;;;18.60;99.90;;;;;;5060411;28;20084;-83
2022/08/20 01:46:48;;;;;;;12.27;4.50;;;18.60;99.90;;;;;;5025473;28;20125;-84
2022/08/20 01:49:22;;;;;;;10.43;4.85;;;18.60;99.90;;;;;;5026909;28;20047;-83
2022/08/20 01:51:48;;;;;;;9.35;4.57;;;18.60;99.90;;;;;;5048711;28;20095;-83
2022/08/20 01:54:14;;;;;;;10.95;4.47;;;18.60;99.90;;;;;;5048092;28;20131;-84
2022/08/20 01:56:54;;;;;;;9.25;4.60;;;18.50;99.90;;;;;;5048197;28;20051;-84
2022/08/20 01:59:20;;;;;;;9.00;4.47;;;18.50;99.90;;;;;;5046321;28;20039;-83
2022/08/20 02:01:45;;;;;;;7.88;4.10;;;18.40;99.90;;;;;;5048373;28;20407;-84
2022/08/20 02:04:12;;;;;;;8.15;4.35;;;18.40;99.90;;;;;;5048551;28;20039;-82
2022/08/20 02:06:45;;;;;;;11.18;4.88;;;18.40;99.90;;;;;;5046790;28;20401;-84
2022/08/20 02:09:12;;;;;;;9.88;4.05;;;18.30;99.90;;;;;;5047176;28;20411;-83
2022/08/20 02:11:38;;;;;;;12.32;4.88;;;18.30;99.90;;;;;;5047023;28;20037;-83
2022/08/20 02:14:07;;;;;;;10.32;4.28;;;18.30;99.90;;;;;;5045101;28;20033;-82
2022/08/20 02:16:36;;;;;;;10.68;4.53;;;18.30;99.90;;;;;;5048082;28;20057;-82
2022/08/20 02:19:37;;;;;;;8.35;4.03;;;18.30;99.90;;;;;;5045843;28;20499;-82
2022/08/20 02:22:24;;;;;;;9.05;4.30;;;18.30;99.90;;;;;;5062973;28;20044;-83
2022/08/20 02:24:50;;;;;;;10.27;4.30;;;18.30;99.90;;;;;;5062629;28;20441;-83
2022/08/20 02:27:17;;;;;;;11.77;4.30;;;18.20;99.90;;;;;;5048722;28;20036;-83
2022/08/20 02:29:43;;;;;;;5.85;3.70;;;18.20;99.90;;;;;;5036492;28;20060;-82
2022/08/20 02:32:10;;;;;;;7.15;4.60;;;18.20;99.90;;;;;;5047314;28;20037;-84
2022/08/20 02:34:35;;;;;;;8.63;4.60;;;18.20;99.90;;;;;;5046035;28;20071;-83
2022/08/20 02:37:02;;;;;;;7.78;4.38;;;18.20;99.90;;;;;;5044168;28;20045;-83
2022/08/20 02:39:28;;;;;;;6.88;4.35;;;18.10;99.90;;;;;;5047615;28;20029;-83
2022/08/20 02:41:54;;;;;;;9.70;4.70;;;18.20;99.90;;;;;;5048338;28;20490;-84
2022/08/20 02:44:20;;;;;;;7.65;4.60;;;18.10;99.90;;;;;;5047798;28;20044;-83
2022/08/20 02:46:48;;;;;;;9.52;4.07;;;18.10;99.90;;;;;;5028220;28;20048;-83
2022/08/20 02:49:16;;;;;;;11.52;5.05;;;18.00;99.90;;;;;;5045374;28;20413;-84
2022/08/20 02:51:42;;;;;;;6.75;4.53;;;18.00;99.90;;;;;;5047645;28;20060;-84
2022/08/20 02:54:08;;;;;;;11.82;4.45;;;18.00;99.90;;;;;;5026497;28;20458;-84
2022/08/20 02:56:34;;;;;;;6.72;4.28;;;17.90;99.90;;;;;;5031337;28;20108;-84
2022/08/20 02:58:59;;;;;;;9.93;4.38;;;17.90;99.90;;;;;;5042945;28;20364;-82
2022/08/20 03:01:26;;;;;;;10.27;4.63;;;17.90;99.90;;;;;;5026933;28;20060;-85
2022/08/20 03:03:52;;;;;;;8.00;4.57;;;17.80;99.90;;;;;;5047866;28;20072;-84
2022/08/20 03:06:17;;;;;;;8.43;4.35;;;17.80;99.90;;;;;;5045419;28;20076;-84
2022/08/20 03:08:43;;;;;;;8.02;4.20;;;17.80;99.90;;;;;;5029009;28;20051;-84
2022/08/20 03:11:09;;;;;;;7.95;4.10;;;17.80;99.90;;;;;;5026206;28;20116;-84
2022/08/20 03:13:36;;;;;;;8.82;4.75;;;17.80;99.90;;;;;;5029396;28;20525;-82
2022/08/20 03:16:03;;;;;;;8.10;4.07;;;17.70;99.90;;;;;;5045561;28;20060;-83
2022/08/20 03:18:33;;;;;;;6.53;3.72;;;17.70;99.90;;;;;;5045330;28;20041;-83
2022/08/20 03:20:59;;;;;;;9.40;4.47;;;17.70;99.90;;;;;;5046657;28;20120;-85
2022/08/20 03:23:25;;;;;;;10.40;4.25;;;17.70;99.90;;;;;;5045491;28;20047;-84
2022/08/20 03:25:51;;;;;;;9.85;4.05;;;17.70;99.90;;;;;;5029287;28;20045;-83
2022/08/20 03:28:18;;;;;;;7.70;3.80;;;17.60;99.90;;;;;;5046041;28;20036;-84
2022/08/20 03:30:44;;;;;;;10.05;3.70;;;17.60;99.90;;;;;;5026907;28;20051;-84
2022/08/20 03:33:10;;;;;;;6.90;3.38;;;17.60;99.90;;;;;;5044678;28;20033;-83
2022/08/20 03:35:36;;;;;;;7.07;3.25;;;17.60;99.90;;;;;;5043980;28;20036;-83
2022/08/20 03:38:09;;;;;;;10.82;3.67;;;17.50;99.90;;;;;;5025586;28;20130;-83
2022/08/20 03:40:36;;;;;;;6.70;2.97;;;17.50;99.90;;;;;;5045647;28;20036;-84
2022/08/20 03:43:05;;;;;;;9.95;3.45;;;17.60;99.90;;;;;;5043486;28;20119;-83
2022/08/20 03:45:31;;;;;;;6.93;3.22;;;17.50;99.90;;;;;;5045396;28;20036;-84
2022/08/20 03:47:57;;;;;;;10.15;3.70;;;17.50;99.90;;;;;;5046306;28;20454;-83
2022/08/20 03:50:25;;;;;;;7.45;3.65;;;17.50;99.90;;;;;;5045340;28;20152;-84
2022/08/20 03:52:52;;;;;;;8.68;3.28;;;17.50;99.90;;;;;;5045545;28;20045;-85
2022/08/20 03:55:20;;;;;;;9.05;3.35;;;17.50;99.90;;;;;;5046371;28;20519;-82
2022/08/20 03:57:55;;;;;;;7.07;2.75;;;17.50;99.90;;;;;;5044083;28;20080;-82
2022/08/20 04:00:26;;;;;;;12.45;3.65;;;17.40;99.90;;;;;;5045886;28;20041;-83
2022/08/20 04:02:52;;;;;;;11.85;3.15;;;17.50;99.90;;;;;;5046084;28;20029;-83
2022/08/20 04:05:18;;;;;;;5.82;2.65;;;17.50;99.90;;;;;;5044533;28;20126;-83
2022/08/20 04:07:43;;;;;;;8.27;2.95;;;17.40;99.90;;;;;;5044614;28;20080;-83
2022/08/20 04:10:11;;;;;;;6.72;2.88;;;17.40;99.90;;;;;;5044630;28;20033;-83
2022/08/20 04:12:39;;;;;;;7.55;2.90;;;17.40;99.90;;;;;;5043084;28;20520;-83
2022/08/20 04:15:16;;;;;;;7.85;2.95;;;17.30;99.90;;;;;;5043520;28;20048;-82
2022/08/20 04:17:47;;;;;;;8.15;2.97;;;17.30;99.90;;;;;;5025155;28;20044;-83
2022/08/20 04:20:17;;;;;;;8.70;2.92;;;17.30;99.90;;;;;;5026145;28;20059;-83
2022/08/20 04:22:42;;;;;;;7.38;3.13;;;17.20;99.90;;;;;;5045457;28;20033;-83
2022/08/20 04:25:08;;;;;;;9.02;2.95;;;17.20;99.90;;;;;;5041115;28;20041;-83
2022/08/20 04:27:37;;;;;;;7.43;2.67;;;17.20;99.90;;;;;;5046179;28;20060;-83
2022/08/20 04:30:06;;;;;;;8.38;2.92;;;17.30;99.90;;;;;;5023621;28;20465;-84
2022/08/20 04:32:35;;;;;;;8.10;2.97;;;17.20;99.90;;;;;;5045511;28;20037;-84
2022/08/20 04:35:00;;;;;;;7.25;2.85;;;17.10;99.90;;;;;;5045949;28;20079;-85
2022/08/20 04:37:26;;;;;;;7.65;2.90;;;17.10;99.90;;;;;;5046746;28;20517;-84
2022/08/20 04:42:37;;;;;;;9.10;2.97;;;17.10;99.90;;;;;;5046586;28;20033;-83
2022/08/20 04:45:05;;;;;;;10.93;3.38;;;17.10;99.90;;;;;;5043867;28;20036;-83
2022/08/20 04:47:34;;;;;;;7.00;2.70;;;17.20;99.90;;;;;;5043811;28;20293;-84
2022/08/20 04:50:00;;;;;;;7.78;2.80;;;17.10;99.90;;;;;;5044744;28;20067;-83
2022/08/20 04:52:27;;;;;;;6.20;2.30;;;17.10;99.90;;;;;;5043082;28;20037;-84
2022/08/20 04:54:54;;;;;;;12.30;3.40;;;17.10;99.90;;;;;;5029316;28;20072;-83
2022/08/20 04:57:21;;;;;;;7.65;2.63;;;17.10;99.90;;;;;;5030212;28;20072;-83
2022/08/20 04:59:46;;;;;;;6.00;2.47;;;17.00;99.90;;;;;;5023830;28;20033;-84
2022/08/20 05:02:12;;;;;;;9.18;2.63;;;17.00;99.90;;;;;;5048001;28;20048;-84
2022/08/20 05:04:37;;;;;;;9.13;2.75;;;16.90;99.90;;;;;;5048469;28;20029;-83
2022/08/20 05:07:03;;;;;;;9.60;2.70;;;16.90;99.90;;;;;;5048621;28;20041;-83
2022/08/20 05:09:31;;;;;;;8.95;2.65;;;16.80;99.90;;;;;;5049986;28;20551;-83
2022/08/20 05:11:56;;;;;;;7.70;2.67;;;16.80;99.90;;;;;;5047129;28;20045;-84
2022/08/20 05:14:22;;;;;;;6.88;2.50;;;16.70;99.90;;;;;;5030187;28;20521;-84
2022/08/20 05:16:49;;;;;;;7.65;2.53;;;16.70;99.90;;;;;;5049090;28;20098;-85
2022/08/20 05:19:16;;;;;;;8.13;2.70;;;16.70;99.90;;;;;;5049763;28;20064;-83
2022/08/20 05:21:41;;;;;;;8.63;2.70;;;16.70;99.90;;;;;;5049864;28;20071;-84
2022/08/20 05:24:08;;;;;;;9.38;2.78;;;16.70;99.90;;;;;;5047019;28;20569;-84
2022/08/20 05:26:35;;;;;;;8.00;2.80;;;16.60;99.90;;;;;;5043589;28;20062;-83
2022/08/20 05:29:03;;;;;;;7.82;2.80;;;16.60;99.90;;;;;;5044724;28;20037;-83
2022/08/20 05:31:30;;;;;;;12.27;2.80;;;16.50;99.90;;;;;;5031808;28;20033;-83
2022/08/20 05:33:56;;;;;;;11.55;3.35;;;16.60;99.90;;;;;;5057006;28;20043;-83
2022/08/20 05:36:22;;;;;;;9.65;2.60;;;16.60;99.90;;;;;;5028801;28;20443;-84
2022/08/20 05:38:47;;;;;;;6.63;2.55;;;16.50;99.90;;;;;;5048026;28;20036;-84
2022/08/20 05:41:13;;;;;;;7.63;2.63;;;16.50;99.90;;;;;;5048102;28;20113;-83
2022/08/20 05:43:39;;;;;;;8.05;2.63;;;16.50;99.90;;;;;;5046938;28;20041;-85
2022/08/20 05:46:04;;;;;;;7.03;2.53;;;16.60;99.90;;;;;;5046568;28;20033;-84
2022/08/20 05:48:33;;;;;;;5.88;2.20;;;16.60;99.90;;;;;;5045593;28;20087;-84
2022/08/20 05:50:59;;;;;;;8.70;2.60;;;16.70;99.90;;;;;;5029770;28;20048;-84
2022/08/20 05:53:25;;;;;;;9.60;2.83;;;16.80;99.90;;;;;;5048001;28;20044;-83
2022/08/20 05:55:51;;;;;;;8.90;2.35;;;16.90;99.90;;;;;;5052750;28;20465;-84
2022/08/20 05:58:23;;;;;;;8.25;2.55;;;17.00;99.90;;;;;;5049518;28;20072;-86
2022/08/20 06:00:50;;;;;;;10.23;2.20;;;17.20;99.90;;;;;;5047061;28;20404;-84
2022/08/20 06:06:01;;;;;;;11.85;2.75;;;17.50;99.90;;;;;;5049776;28;20072;-84
2022/08/20 06:08:27;;;;;;;7.35;2.10;;;17.60;99.90;;;;;;5035962;28;20033;-84
2022/08/20 06:10:53;;;;;;;7.07;1.80;;;17.70;99.90;;;;;;5053718;28;20041;-84
2022/08/20 06:13:18;;;;;;;6.43;2.00;;;17.70;99.90;;;;;;5053097;28;20461;-84
2022/08/20 06:15:44;;;;;;;9.73;2.20;;;17.80;99.90;;;;;;5052551;28;20041;-83
2022/08/20 06:18:10;;;;;;;6.05;1.98;;;17.90;99.90;;;;;;5052231;28;20056;-85
2022/08/20 06:20:37;;;;;;;6.90;1.85;;;18.00;99.90;;;;;;5052725;28;20093;-84
2022/08/20 06:23:04;;;;;;;8.48;2.10;;;18.10;99.90;;;;;;5052387;28;20494;-84
2022/08/20 06:25:29;;;;;;;7.88;2.00;;;18.20;99.90;;;;;;5051844;28;20041;-84
2022/08/20 06:27:55;;;;;;;9.13;2.13;;;18.20;99.90;;;;;;5052445;28;20121;-85
2022/08/20 06:30:21;;;;;;;10.38;2.20;;;18.30;99.90;;;;;;5052656;28;20041;-84
2022/08/20 06:32:48;;;;;;;6.85;1.52;;;18.40;99.90;;;;;;5035443;28;20083;-84
2022/08/20 06:35:14;;;;;;;8.65;2.08;;;18.50;99.90;;;;;;5051791;28;20107;-84
2022/08/20 06:37:40;;;;;;;6.18;1.73;;;18.50;99.90;;;;;;5052310;28;20052;-83
2022/08/20 06:40:10;;;;;;;6.00;1.73;;;18.60;99.90;;;;;;5052612;28;20037;-83
2022/08/20 06:42:36;;;;;;;6.63;1.63;;;18.60;99.90;;;;;;5052502;28;20041;-83
2022/08/20 06:45:04;;;;;;;8.32;1.95;;;18.70;99.90;;;;;;5052026;28;20091;-84
2022/08/20 06:47:30;;;;;;;6.15;1.52;;;18.90;99.90;;;;;;5052367;28;20410;-83
2022/08/20 06:49:56;;;;;;;5.78;1.60;;;18.90;99.90;;;;;;5036312;28;20055;-84
2022/08/20 06:52:22;;;;;;;6.00;1.83;;;19.00;99.90;;;;;;5053487;28;20044;-83
2022/08/20 06:54:48;;;;;;;4.82;1.75;;;19.00;99.90;;;;;;5053276;28;20041;-83
2022/08/20 06:57:14;;;;;;;6.25;1.48;;;19.10;99.90;;;;;;5036462;28;20037;-83
2022/08/20 06:59:40;;;;;;;6.63;1.40;;;19.20;99.90;;;;;;5052697;28;20040;-84
2022/08/20 07:02:06;;;;;;;7.93;1.95;;;19.30;99.90;;;;;;5036313;28;20037;-83
2022/08/20 07:04:32;;;;;;;6.47;1.77;;;19.40;99.90;;;;;;5052763;28;20056;-83
2022/08/20 07:06:58;;;;;;;5.68;1.35;;;19.50;99.90;;;;;;5052810;28;20464;-82
2022/08/20 07:09:25;;;;;;;7.32;1.75;;;19.70;99.90;;;;;;5052249;28;20045;-83
2022/08/20 07:11:51;;;;;;;8.13;1.67;;;19.70;99.90;;;;;;5052097;28;20049;-84
2022/08/20 07:14:17;;;;;;;5.85;1.52;;;19.70;99.90;;;;;;5052272;28;20048;-84
2022/08/20 07:16:45;;;;;;;7.47;1.67;;;19.70;99.90;;;;;;5052482;28;20048;-83
2022/08/20 07:19:12;;;;;;;7.13;1.50;;;19.90;99.90;;;;;;5052229;28;20045;-83
2022/08/20 07:21:37;;;;;;;4.95;1.38;;;20.00;99.90;;;;;;5052373;28;20039;-84
2022/08/20 07:24:03;;;;;;;5.10;1.27;;;20.10;99.90;;;;;;5052587;28;20490;-82
2022/08/20 07:26:28;;;;;;;5.28;1.25;;;20.10;99.90;;;;;;5035330;28;20041;-84
2022/08/20 07:28:54;;;;;;;6.05;1.23;;;20.30;99.90;;;;;;5052859;28;20119;-83
2022/08/20 07:34:04;;;;;;;;;;;20.20;99.90;;;;;;5039801;28;20457;-82
2022/08/20 07:36:30;;;;;;;5.85;1.15;;;20.20;99.90;;;;;;5051669;28;19960;-82
2022/08/20 07:38:56;;;;;;;6.57;1.73;;;20.20;99.90;;;;;;5046735;28;20048;-83
2022/08/20 07:41:22;;;;;;;4.60;1.10;;;20.30;99.90;;;;;;5043602;28;20029;-82
2022/08/20 07:43:47;;;;;;;7.13;1.30;;;20.30;99.90;;;;;;5051540;28;20291;-83
2022/08/20 07:46:16;;;;;;;4.05;0.93;;;20.20;99.90;;;;;;5053623;28;20021;-82
2022/08/20 07:48:48;;;;;;;6.25;1.23;;;20.20;99.90;;;;;;5053612;28;20045;-82
2022/08/20 07:51:16;;;;;;;5.90;1.38;;;20.30;99.90;;;;;;5053261;28;20036;-81
2022/08/20 07:53:43;;;;;;;6.43;1.42;;;20.40;99.90;;;;;;5053600;28;20049;-83
2022/08/20 07:56:11;;;;;;;6.70;1.40;;;20.60;99.90;;;;;;5035601;28;20044;-80
2022/08/20 07:58:41;;;;;;;6.95;1.30;;;20.60;99.90;;;;;;5052246;28;20399;-82
2022/08/20 08:01:06;;;;;;;4.30;1.30;;;20.50;99.90;;;;;;5053115;28;20033;-83
2022/08/20 08:03:32;;;;;;;6.15;1.10;;;20.80;99.90;;;;;;5037342;28;20040;-83
2022/08/20 08:05:59;;;;;;;5.70;1.10;;;20.80;99.90;;;;;;5053300;28;20037;-83
2022/08/20 08:08:27;;;;;;;6.10;1.10;;;20.90;99.90;;;;;;5037679;28;20116;-82
2022/08/20 08:10:58;;;;;;;4.90;1.10;;;21.00;99.90;;;;;;5052577;28;20054;-83
2022/08/20 08:13:26;;;;;;;5.85;1.23;;;21.00;99.90;;;;;;5053240;28;20037;-83
2022/08/20 08:15:56;;;;;;;4.97;1.25;;;21.20;99.90;;;;;;5053274;28;20106;-82
2022/08/20 08:18:25;;;;;;;5.95;1.40;;;21.20;99.90;;;;;;5052147;28;20116;-82
2022/08/20 08:20:52;;;;;;;6.60;1.50;;;21.20;99.90;;;;;;5052508;28;20040;-83
2022/08/20 08:23:22;;;;;;;8.25;1.25;;;21.20;99.90;;;;;;5053401;28;20094;-83
2022/08/20 08:25:50;;;;;;;6.43;1.25;;;21.20;99.90;;;;;;5043946;28;20480;-81
2022/08/20 08:28:16;;;;;;;4.15;1.10;;;21.30;99.90;;;;;;5048006;28;20503;-82
2022/08/20 08:30:45;;;;;;;5.53;1.40;;;21.20;99.90;;;;;;5053342;28;20138;-82
2022/08/20 08:33:27;;;;;;;4.30;1.10;;;21.30;99.90;;;;;;5052922;28;20470;-82
2022/08/20 08:36:12;;;;;;;4.82;1.23;;;21.40;99.90;;;;;;5053246;28;20045;-83
2022/08/20 08:38:41;;;;;;;5.70;1.20;;;21.40;99.90;;;;;;5032690;28;20610;-83
2022/08/20 08:41:34;;;;;;;6.53;1.38;;;21.30;99.90;;;;;;5042136;28;20041;-82
2022/08/20 08:44:19;;;;;;;4.97;1.40;;;21.20;99.90;;;;;;5051752;28;20033;-84
2022/08/20 08:46:48;;;;;;;6.75;1.20;;;21.40;99.90;;;;;;5053111;28;20037;-83
2022/08/20 08:49:20;;;;;;;5.65;1.08;;;21.50;99.90;;;;;;5052757;28;20503;-82
2022/08/20 08:51:49;;;;;;;4.57;1.08;;;21.50;99.90;;;;;;5052895;28;20041;-82
2022/08/20 08:54:19;;;;;;;6.10;1.27;;;21.60;99.90;;;;;;5052501;28;20052;-83
2022/08/20 08:56:45;;;;;;;5.28;1.38;;;21.80;99.90;;;;;;5044849;28;20065;-81
2022/08/20 08:59:10;;;;;;;6.75;1.20;;;22.00;99.90;;;;;;5047128;28;20045;-81
2022/08/20 09:01:48;;;;;;;5.35;1.50;;;22.00;99.90;;;;;;5036553;28;20040;-82
2022/08/20 09:04:17;;;;;;;6.03;1.10;;;22.00;99.90;;;;;;5035400;28;20037;-81
2022/08/20 09:06:43;;;;;;;5.90;1.30;;;22.00;99.90;;;;;;5036443;28;20120;-81
2022/08/20 09:09:20;;;;;;;4.28;1.10;;;22.10;99.90;;;;;;5052759;28;20125;-81
2022/08/20 09:11:52;;;;;;;3.25;1.10;;;22.00;99.90;;;;;;5036367;28;20043;-83
2022/08/20 09:14:19;;;;;;;5.10;1.48;;;22.10;99.90;;;;;;5052550;28;20065;-81
2022/08/20 09:16:45;;;;;;;4.97;1.20;;;22.10;99.90;;;;;;5052479;28;20083;-82
2022/08/20 09:19:11;;;;;;;4.50;1.33;;;22.20;99.90;;;;;;5052492;28;20492;-81
2022/08/20 09:21:36;;;;;;;7.85;1.15;;;22.30;99.90;;;;;;5052825;28;20033;-83
2022/08/20 09:24:03;;;;;;;5.82;1.40;;;22.40;99.90;;;;;;5052293;28;20124;-83
2022/08/20 09:26:29;;;;;;;5.55;1.27;;;22.20;99.90;;;;;;5038499;28;20088;-82
2022/08/20 09:28:55;;;;;;;5.25;1.52;;;21.80;99.90;;;;;;5053458;28;20041;-82
2022/08/20 09:31:21;;;;;;;5.18;1.70;;;21.70;99.90;;;;;;5036202;28;20135;-82
2022/08/20 09:33:46;;;;;;;4.93;1.30;;;21.60;99.90;;;;;;5051764;28;20098;-82
2022/08/20 09:36:12;;;;;;;6.88;1.50;;;21.60;99.90;;;;;;5052118;28;20127;-83
2022/08/20 09:38:37;;;;;;;7.13;1.30;;;21.60;99.90;;;;;;5032775;28;20037;-82
2022/08/20 09:41:03;;;;;;;6.15;1.50;;;21.70;99.90;;;;;;5044285;28;20033;-83
2022/08/20 09:43:29;;;;;;;4.45;1.20;;;21.60;99.90;;;;;;5056891;28;20045;-82
2022/08/20 09:45:54;;;;;;;6.70;1.15;;;21.90;99.90;;;;;;5056586;28;20025;-82
2022/08/20 09:48:20;;;;;;;4.63;1.17;;;21.90;99.90;;;;;;5039531;28;20044;-82
2022/08/20 09:50:48;;;;;;;3.55;1.30;;;21.90;99.90;;;;;;5056035;28;20037;-82
2022/08/20 09:53:14;;;;;;;4.88;1.30;;;21.90;99.90;;;;;;5039406;28;20124;-80
2022/08/20 09:55:43;;;;;;;5.93;1.30;;;21.90;99.40;;;;;;5055936;28;20120;-82
2022/08/20 09:58:19;;;;;;;6.13;0.90;;;21.90;98.90;;;;;;5041888;28;20060;-80
2022/08/20 10:00:45;;;;;;;2.97;1.00;;;22.00;97.20;;;;;;5038715;28;20048;-81
2022/08/20 10:03:10;;;;;;;4.80;1.25;;;22.10;97.80;;;;;;5024770;28;20036;-82
2022/08/20 10:05:36;;;;;;;3.58;1.00;;;22.00;97.80;;;;;;5055311;28;20051;-80
2022/08/20 10:08:06;;;;;;;4.65;1.27;;;22.10;98.20;;;;;;5055375;28;20498;-81
2022/08/20 10:10:32;;;;;;;6.45;1.48;;;22.20;98.10;;;;;;5055137;28;20585;-81
2022/08/20 10:12:57;;;;;;;5.53;1.20;;;22.20;98.40;;;;;;5055091;28;20190;-82
2022/08/20 10:15:24;;;;;;;4.90;1.23;;;22.20;98.40;;;;;;5052471;28;20121;-81
2022/08/20 10:17:50;;;;;;;4.63;1.65;;;22.10;98.60;;;;;;5034227;28;20499;-81
2022/08/20 10:20:17;;;;;;;6.15;1.65;;;22.00;99.00;;;;;;5054465;28;20041;-82
2022/08/20 10:22:43;;;;;;;5.43;1.25;;;21.90;98.30;;;;;;5055558;28;20503;-81
2022/08/20 10:25:09;;;;;;;5.25;1.23;;;21.90;98.10;;;;;;5054731;28;20041;-81
2022/08/20 10:27:35;;;;;;;8.82;1.20;;;22.00;98.10;;;;;;5049540;28;20406;-81
2022/08/20 10:30:01;;;;;;;3.75;1.10;;;22.30;98.30;;;;;;5053622;28;20036;-80
2022/08/20 10:32:26;;;;;;;5.65;1.55;;;22.70;98.20;;;;;;5057348;28;20533;-82
2022/08/20 10:34:52;;;;;;;4.70;1.20;;;22.90;97.60;;;;;;5053092;28;20380;-82
2022/08/20 10:37:23;;;;;;;5.00;1.55;;;23.20;98.10;;;;;;5051700;28;20056;-82
2022/08/20 10:39:49;;;;;;;4.38;1.30;;;23.40;98.10;;;;;;5047460;28;20075;-83
2022/08/20 10:42:14;;;;;;;4.95;1.40;;;23.80;98.20;;;;;;5045956;28;20136;-81
2022/08/20 10:44:40;;;;;;;4.57;1.15;;;23.90;97.40;;;;;;5051191;28;20388;-82
2022/08/20 10:47:15;;;;;;;7.35;1.40;;;24.00;96.60;;;;;;5055020;28;20045;-81
2022/08/20 10:49:41;;;;;;;5.50;1.30;;;23.80;96.00;;;;;;5036888;28;20052;-81
2022/08/20 10:52:06;;;;;;;4.47;1.27;;;23.50;96.10;;;;;;5025720;28;20045;-82
2022/08/20 10:54:32;;;;;;;2.97;1.17;;;23.50;96.30;;;;;;5051589;28;20037;-81
2022/08/20 10:57:02;;;;;;;4.50;1.25;;;23.60;96.20;;;;;;5054072;28;20071;-80
2022/08/20 10:59:28;;;;;;;3.92;1.40;;;23.60;96.00;;;;;;5053397;28;20509;-81
2022/08/20 11:01:53;;;;;;;6.35;1.65;;;23.50;95.40;;;;;;5056327;28;20045;-80
2022/08/20 11:04:19;;;;;;;5.32;1.50;;;23.50;95.10;;;;;;5053695;28;20029;-81
2022/08/20 11:06:44;;;;;;;4.68;1.65;;;23.60;95.00;;;;;;5054322;28;20560;-80
2022/08/20 11:09:10;;;;;;;5.30;1.40;;;23.30;94.60;;;;;;5054021;28;20764;-80
2022/08/20 11:11:36;;;;;;;5.22;1.50;;;23.20;94.40;;;;;;5054425;28;20051;-81
2022/08/20 11:14:01;;;;;;;4.22;1.15;;;23.00;94.90;;;;;;5038899;28;20578;-81
2022/08/20 11:16:28;;;;;;;4.90;1.20;;;23.10;95.40;;;;;;5053787;28;20033;-81
2022/08/20 11:18:53;;;;;;;5.25;1.48;;;23.00;95.50;;;;;;5053886;28;20127;-82
2022/08/20 11:21:19;;;;;;;8.18;1.90;;;23.00;95.10;;;;;;5053761;28;20632;-81
2022/08/20 11:23:45;;;;;;;4.50;1.40;;;23.10;95.20;;;;;;5054152;28;20120;-81
2022/08/20 11:26:20;;;;;;;6.75;1.58;;;23.00;95.20;;;;;;5054420;28;20127;-81
2022/08/20 11:28:46;;;;;;;6.30;1.40;;;23.20;95.90;;;;;;5053772;28;20052;-81
2022/08/20 11:31:11;;;;;;;5.90;1.55;;;23.20;95.80;;;;;;5037447;28;20411;-80
2022/08/20 11:33:37;;;;;;;6.88;1.63;;;23.30;96.10;;;;;;5038447;28;20063;-82
2022/08/20 11:36:03;;;;;;;7.43;1.77;;;23.50;96.30;;;;;;5054685;28;20103;-82
2022/08/20 11:38:28;;;;;;;7.40;1.60;;;24.00;96.40;;;;;;5053943;28;20037;-81
2022/08/20 11:40:54;;;;;;;4.85;1.48;;;24.40;96.30;;;;;;5054596;28;20141;-83
2022/08/20 11:43:19;;;;;;;4.43;1.42;;;24.30;95.70;;;;;;5054700;28;20495;-82
2022/08/20 11:45:48;;;;;;;7.70;1.73;;;24.10;95.70;;;;;;5054686;28;20060;-83
2022/08/20 11:48:14;;;;;;;5.50;1.40;;;23.90;95.40;;;;;;5037994;28;20426;-82
2022/08/20 11:50:39;;;;;;;8.48;1.80;;;24.10;95.70;;;;;;5054464;28;20051;-82
2022/08/20 11:53:05;;;;;;;4.95;1.35;;;24.10;95.60;;;;;;5055104;28;20497;-81
2022/08/20 11:55:30;;;;;;;5.50;1.45;;;24.20;95.80;;;;;;5053598;28;20055;-81
2022/08/20 11:57:56;;;;;;;7.70;1.55;;;24.10;95.50;;;;;;5053575;28;20036;-82
2022/08/20 12:00:23;;;;;;;5.10;1.63;;;23.90;95.30;;;;;;5054135;28;20552;-81
2022/08/20 12:02:50;;;;;;;5.95;1.63;;;23.60;95.20;;;;;;5037113;28;20509;-82
2022/08/20 12:05:17;;;;;;;8.35;1.60;;;23.70;96.10;;;;;;5051713;28;20111;-80
2022/08/20 12:07:43;;;;;;;7.55;1.50;;;23.60;95.70;;;;;;5024038;28;20037;-80
2022/08/20 12:10:09;;;;;;;6.28;1.65;;;23.50;95.80;;;;;;5047078;28;20617;-81
2022/08/20 12:12:36;;;;;;;5.93;1.45;;;23.40;95.60;;;;;;5052218;28;20037;-81
2022/08/20 12:15:03;;;;;;;4.25;1.40;;;23.20;94.80;;;;;;5045042;28;20521;-80
2022/08/20 12:17:29;;;;;;;5.22;1.23;;;23.20;94.00;;;;;;5042634;28;20037;-81
2022/08/20 12:19:57;;;;;;;6.70;1.73;;;23.10;94.40;;;;;;5041580;28;20033;-80
2022/08/20 12:22:23;;;;;;;6.15;1.55;;;23.20;93.80;;;;;;5043016;28;20044;-81
2022/08/20 12:24:49;;;;;;;5.40;1.38;;;23.40;93.90;;;;;;5050615;28;20044;-82
2022/08/20 12:27:27;;;;;;;4.40;1.38;;;23.90;93.80;;;;;;5049099;28;20033;-82
2022/08/20 12:29:56;;;;;;;4.88;1.30;;;24.10;93.50;;;;;;5049753;28;20056;-82
2022/08/20 12:32:24;;;;;;;6.65;1.35;;;24.20;94.00;;;;;;5046266;28;20048;-82
2022/08/20 12:34:49;;;;;;;5.78;1.40;;;24.20;93.40;;;;;;5049395;28;20403;-81
2022/08/20 12:37:21;;;;;;;5.13;1.52;;;24.40;94.00;;;;;;5046939;28;20037;-82
2022/08/20 12:39:50;;;;;;;5.28;1.55;;;24.80;93.10;;;;;;5045950;28;20113;-82
2022/08/20 12:42:17;;;;;;;5.90;1.60;;;25.00;92.10;;;;;;5049556;28;20082;-81
2022/08/20 12:44:43;;;;;;;4.97;1.35;;;25.10;92.10;;;;;;5049735;28;20040;-82
2022/08/20 12:47:13;;;;;;;4.68;1.30;;;24.90;91.70;;;;;;5050372;28;20075;-81
2022/08/20 12:49:41;;;;;;;5.30;1.65;;;24.80;92.30;;;;;;5047478;28;20052;-80
2022/08/20 12:52:08;;;;;;;5.72;1.50;;;24.60;92.60;;;;;;5048247;28;20035;-81
2022/08/20 12:54:34;;;;;;;7.50;1.90;;;24.30;92.70;;;;;;5049238;28;20041;-81
2022/08/20 12:57:00;;;;;;;7.93;1.90;;;24.20;93.00;;;;;;5048345;28;20040;-81